Rhinecliff, NY (12574)

11:01 PM EDT on October 01, 2014 (GMT -0400)
Rhinecliff Hamlet | Change Station
CLOSE
Current Station
Personal Weather Station
Location: Rhinebeck, NY
Elevation: 85 ft
Nearby Weather Stations

Elev 85 ft 41.92 °N, 73.95 °W | Updated 9 minutes ago

Overcast
Overcast
60.6 °F
Feels Like 60.6 °F
N
1.7
Wind Variable Wind from NE

Today
High -- | Low -- °F
--% Chance of Precip.
Yesterday
High -- | Low -- °F
Precip. -- in
6:52 AM 6:37 PM
First Quarter, 54% visible
Pressure 30.09 in
Visibility 4.0 miles
Clouds Few 900 ft
Mostly Cloudy 2700 ft
Overcast 4100 ft
Dew Point 59 °F
Humidity 95%
Rainfall 0.15 in
Snow Depth Not available.
UV 0 out of 12
Pollen 1.20 out of 12
PM2.5 Good
Flu Activity Not available.
METAR KPOU 020253Z 00000KT 4SM -RA BR FEW009 BKN027 OVC041 16/14 A3009 RMK AO2 RAB40 SLP187 P0001 60002 T01560144 50004

More Conditions Fewer Conditions

Pressure 30.09 in
Visibility 4.0 miles
Clouds Few 900 ft
Mostly Cloudy 2700 ft
Overcast 4100 ft
Dew Point 59 °F
Humidity 95%
Rainfall 0.15 in
Snow Depth Not available.
UV 0 out of 12
Pollen 1.20 out of 12
PM2.5 Good
Flu Activity Not available.
METAR KPOU 020253Z 00000KT 4SM -RA BR FEW009 BKN027 OVC041 16/14 A3009 RMK AO2 RAB40 SLP187 P0001 60002 T01560144 50004

More Conditions Fewer Conditions

10-Day Weather Forecast

Almanac

Astronomy

Oct. 01, 2014 Rise Set
Actual Time 6:52 AM EDT 6:37 PM EDT
Civil Twilight 6:24 AM EDT 7:05 PM EDT
Nautical Twilight 5:52 AM EDT 7:37 PM EDT
Astronomical Twilight 5:19 AM EDT 8:10 PM EDT
Moon 1:55 PM EDT (10/1) No Moon Set
Length of Visible Light 12h 40m
Length of Day
11h 44m
Tomorrow will be 2m 47s shorter.
First Quarter, 54% of the Moon is Illuminated
Today
First Quarter
Oct 8
Full
Oct 15
Last Quarter
Oct 23
New
Oct 30
First Quarter

Today's Extremes

State Highs State Lows

Community

WunderPhotos

Upload Photos

1,758,157 photos uploaded!

WunderBlogs® & News

Nearby

Air Quality

  Air Quality AQ Index Pollutant
Yesterday Good
PM2.5
Yesterday Good
OZONE
Current Good
PM2.5
Wednesday Good
PM2.5
Thursday Good
PM2.5

Snow Depth

Station Depth Elevation
No new snow has been reported.

Earthquake Activity

City Distance Mag. Time & Date
No recent earthquake activity has been reported nearby.
Minimum magnitude displayed is 2.5.

Coastal Water Temperatures

Place Temperature
No Stations Reporting

Nearby Weather Stations